createdAt,value
2022-10-19T02:51:51.578Z,102053.00
2022-10-19T05:48:58.149Z,101879.31
2022-10-19T05:55:07.443Z,101879.22
2022-10-19T05:58:33.684Z,101892.00
2022-10-19T06:01:00.121Z,101896.41
2022-10-19T06:03:36.488Z,101891.13
2022-10-19T06:06:11.205Z,101886.84
2022-10-19T06:08:48.359Z,101874.75
2022-10-19T06:11:26.573Z,101891.13
2022-10-19T06:13:56.917Z,101892.72
2022-10-19T06:16:28.228Z,101884.00
2022-10-19T06:18:57.735Z,101877.09
2022-10-19T06:21:31.203Z,101875.38
2022-10-19T06:24:12.844Z,101887.59
2022-10-19T06:26:43.673Z,101878.19
2022-10-19T06:29:14.747Z,101875.69
2022-10-19T06:31:50.939Z,101874.94
2022-10-19T06:34:21.264Z,101887.88
2022-10-19T06:37:07.529Z,101880.94
2022-10-19T06:39:41.574Z,101880.09
2022-10-19T06:42:21.149Z,101875.78
2022-10-19T06:45:00.130Z,101884.41
2022-10-19T07:23:30.898Z,101880.03
2022-10-19T07:26:01.925Z,101870.56
2022-10-19T07:28:31.506Z,101874.88
2022-10-19T07:30:59.712Z,101880.91
2022-10-19T07:33:42.367Z,101867.13
2022-10-19T07:36:13.893Z,101866.28
2022-10-19T07:38:45.435Z,101868.91
2022-10-19T07:41:18.177Z,101856.81
2022-10-19T07:43:49.283Z,101865.34
2022-10-19T07:46:20.596Z,101859.25
2022-10-19T07:48:55.780Z,101855.72
2022-10-19T07:54:07.032Z,101839.38
2022-10-19T07:56:39.668Z,101848.06
2022-10-19T07:59:13.661Z,101842.06
2022-10-19T08:01:53.807Z,101836.06
2022-10-19T08:07:10.194Z,101839.66
2022-10-19T08:09:57.525Z,101847.44
2022-10-19T08:12:25.622Z,101846.69
2022-10-19T08:14:55.304Z,101851.84
2022-10-19T08:17:25.092Z,101852.75
2022-10-19T08:19:53.366Z,101845.00
2022-10-19T08:22:26.078Z,101840.63
2022-10-19T08:24:55.623Z,101845.75
2022-10-19T08:27:25.308Z,101846.59
2022-10-19T08:29:53.608Z,101849.22
2022-10-19T08:32:21.923Z,101841.41
2022-10-19T08:34:50.043Z,101846.59
2022-10-19T08:37:26.410Z,101846.56
2022-10-19T08:40:18.673Z,101833.38
2022-10-19T08:42:59.797Z,101839.38
2022-10-19T08:45:36.149Z,101846.22
2022-10-19T08:48:26.349Z,101834.88
2022-10-19T08:50:58.094Z,101848.59
2022-10-19T08:53:35.489Z,101842.34
2022-10-19T08:56:45.878Z,101841.34
2022-10-19T08:59:21.658Z,101849.00
2022-10-19T09:01:56.979Z,101846.53
2022-10-19T09:04:29.127Z,101843.94
2022-10-19T09:07:08.470Z,101840.53
2022-10-19T09:09:52.487Z,101838.78
2022-10-19T09:12:33.256Z,101837.94
2022-10-19T09:15:05.716Z,101832.78
2022-10-19T09:17:34.700Z,101833.66
2022-10-19T09:20:17.181Z,101844.91
2022-10-19T09:22:46.112Z,101851.84
2022-10-19T09:25:19.740Z,101862.19
2022-10-19T09:27:54.423Z,101856.13
2022-10-19T09:30:24.318Z,101856.22
2022-10-19T09:33:01.404Z,101858.03
2022-10-19T09:35:33.359Z,101846.00
2022-10-19T09:38:02.337Z,101847.69
2022-10-19T09:40:32.059Z,101847.69
2022-10-19T09:43:08.996Z,101857.22
2022-10-19T09:45:43.407Z,101855.53
2022-10-19T09:48:19.608Z,101835.44
2022-10-19T09:50:55.653Z,101829.41
2022-10-19T09:53:24.825Z,101826.75
2022-10-19T09:56:02.758Z,101819.97
2022-10-19T09:58:33.255Z,101820.88
2022-10-19T10:01:03.593Z,101817.50
2022-10-19T10:03:35.389Z,101804.66
2022-10-19T10:06:08.627Z,101802.13
2022-10-19T10:08:40.230Z,101799.66
2022-10-19T10:11:12.783Z,101810.00
2022-10-19T10:13:46.591Z,101814.31
2022-10-19T10:16:17.664Z,101803.88
2022-10-19T10:18:55.387Z,101811.59
2022-10-19T10:21:26.305Z,101809.88
2022-10-19T10:24:06.052Z,101803.84
2022-10-19T10:26:39.270Z,101805.59
2022-10-19T10:29:19.411Z,101796.13
2022-10-19T10:31:51.182Z,101800.44
2022-10-19T10:37:28.447Z,101774.56
2022-10-19T10:40:01.962Z,101769.34
2022-10-19T10:42:38.215Z,101746.94
2022-10-19T10:45:21.573Z,101739.97
2022-10-19T10:47:52.597Z,101739.16
2022-10-19T10:50:24.386Z,101733.16
2022-10-19T10:53:01.069Z,101718.50
2022-10-19T10:55:33.337Z,101734.94
2022-10-19T10:58:16.443Z,101734.16
2022-10-19T11:00:51.655Z,101725.56
2022-10-19T11:03:26.630Z,101717.84
2022-10-19T11:05:58.236Z,101711.91
2022-10-19T11:08:33.331Z,101711.91
2022-10-19T11:11:06.518Z,101715.38
2022-10-19T11:13:45.605Z,101717.06
2022-10-19T11:16:20.129Z,101730.06
2022-10-19T11:18:53.468Z,101741.34
2022-10-19T11:21:29.936Z,101743.06
2022-10-19T11:24:07.720Z,101735.25
2022-10-19T11:27:04.980Z,101726.53
2022-10-19T11:29:45.969Z,101704.97
2022-10-19T11:32:25.086Z,101687.69
2022-10-19T11:35:06.948Z,101693.72
2022-10-19T11:37:50.038Z,101689.28
2022-10-19T11:40:45.797Z,101669.34
2022-10-19T11:43:30.625Z,101638.28
2022-10-19T11:46:06.654Z,101641.69
2022-10-19T11:48:54.782Z,101643.34
2022-10-19T11:51:30.011Z,101634.66
2022-10-19T11:54:14.751Z,101628.56
2022-10-19T11:57:08.305Z,101632.75
2022-10-19T11:59:47.249Z,101631.81
2022-10-19T12:02:36.771Z,101629.16
2022-10-19T12:05:12.341Z,101628.25
2022-10-19T12:08:07.802Z,101633.41
2022-10-19T12:10:45.710Z,101624.75
2022-10-19T12:13:18.501Z,101610.94
2022-10-19T12:15:53.810Z,101592.84
2022-10-19T12:18:30.961Z,101581.59
2022-10-19T12:21:04.039Z,101585.75
2022-10-19T12:23:39.126Z,101589.97
2022-10-19T12:26:14.441Z,101597.69
2022-10-19T12:28:48.332Z,101603.72
2022-10-19T12:31:17.383Z,101587.31
2022-10-19T12:33:55.653Z,101581.22
2022-10-19T12:36:34.319Z,101584.63
2022-10-19T12:39:14.197Z,101586.28
2022-10-19T12:41:52.297Z,101562.22
2022-10-19T12:44:45.934Z,101585.44
2022-10-19T12:47:19.394Z,101551.72
2022-10-19T12:49:50.178Z,101561.34
2022-10-19T12:52:38.678Z,101540.72
2022-10-19T12:55:24.191Z,101550.13
2022-10-19T12:58:00.680Z,101563.03
2022-10-19T13:00:31.823Z,101564.72
2022-10-19T13:03:06.468Z,101576.78
2022-10-19T13:05:36.513Z,101569.97
2022-10-19T13:08:13.811Z,101564.72
2022-10-19T13:10:42.931Z,101546.66
2022-10-19T13:13:43.563Z,101540.66
2022-10-19T13:16:26.171Z,101520.81
2022-10-19T13:19:06.108Z,101525.03
2022-10-19T13:21:52.731Z,101514.59
2022-10-19T13:24:35.226Z,101509.38
2022-10-19T13:27:25.456Z,101482.63
2022-10-19T13:29:54.604Z,101469.72
2022-10-19T13:32:44.481Z,101463.72
2022-10-19T13:35:36.686Z,101460.28
2022-10-19T13:38:26.531Z,101455.88
2022-10-19T13:41:02.878Z,101455.88
2022-10-19T13:43:33.875Z,101472.41
2022-10-19T13:46:09.324Z,101464.84
2022-10-19T13:49:00.314Z,101462.34
2022-10-19T13:51:38.413Z,101443.56
2022-10-19T13:54:22.271Z,101446.16
2022-10-19T13:57:07.695Z,101435.09
2022-10-19T14:00:09.723Z,101449.66
2022-10-19T14:02:59.820Z,101447.06
2022-10-19T14:06:07.551Z,101437.69
2022-10-19T14:09:16.834Z,101433.34
2022-10-19T14:11:48.816Z,101410.94
2022-10-19T14:14:20.659Z,101397.88
2022-10-19T14:16:52.309Z,101403.66
2022-10-19T14:19:27.284Z,101394.09
2022-10-19T14:22:00.489Z,101396.75
2022-10-19T14:24:32.367Z,101392.44
2022-10-19T14:27:02.888Z,101396.16
2022-10-19T14:29:37.564Z,101398.00
2022-10-19T14:32:06.017Z,101398.88
2022-10-19T14:34:34.113Z,101403.22
2022-10-19T14:37:02.183Z,101409.31
2022-10-19T14:39:33.966Z,101411.81
2022-10-19T14:42:05.986Z,101403.97
2022-10-19T14:44:43.822Z,101409.97
2022-10-19T14:47:19.247Z,101412.41
2022-10-19T14:49:47.896Z,101417.34
2022-10-19T14:52:21.671Z,101411.13
2022-10-19T14:54:54.803Z,101401.41
2022-10-19T14:57:27.692Z,101348.78
2022-10-19T14:59:59.749Z,101321.31
2022-10-19T15:02:32.138Z,101312.72
2022-10-19T15:05:03.065Z,101308.28
2022-10-19T15:07:36.707Z,101284.91
2022-10-19T15:10:11.325Z,101284.91
2022-10-19T15:12:41.506Z,101287.63
2022-10-19T15:15:15.053Z,101294.63
2022-10-19T15:18:48.240Z,101297.25
2022-10-19T15:21:20.830Z,101299.81
2022-10-19T15:23:50.633Z,101298.13
2022-10-19T15:26:23.415Z,101283.59
2022-10-19T15:28:51.771Z,101287.19
2022-10-19T15:31:25.377Z,101263.13
2022-10-19T15:34:00.710Z,101283.94
2022-10-19T15:36:30.094Z,101296.22
2022-10-19T15:39:18.226Z,101284.22
2022-10-19T15:41:51.931Z,101284.31
2022-10-19T15:44:43.768Z,101286.94
2022-10-19T15:47:25.819Z,101268.00
2022-10-19T15:50:26.803Z,101272.44
2022-10-19T15:53:49.437Z,101261.34
2022-10-19T15:56:17.653Z,101251.88
2022-10-19T15:58:47.998Z,101245.94
2022-10-19T16:01:20.968Z,101244.28
2022-10-19T16:03:54.448Z,101237.34
2022-10-19T16:06:24.862Z,101237.41
2022-10-19T16:08:55.824Z,101221.88
2022-10-19T16:11:25.266Z,101218.47
2022-10-19T16:13:53.516Z,101225.38
2022-10-19T16:16:24.507Z,101203.00
2022-10-19T16:18:57.230Z,101191.00
2022-10-19T16:21:28.086Z,101182.34
2022-10-19T16:23:56.257Z,101170.34
2022-10-19T16:26:25.551Z,101157.50
2022-10-19T16:28:54.551Z,101137.69
2022-10-19T16:31:26.354Z,101142.03
2022-10-19T16:33:56.659Z,101149.81
2022-10-19T16:36:26.148Z,101150.69
2022-10-19T16:38:58.382Z,101139.53
2022-10-19T16:41:26.459Z,101137.84
2022-10-19T16:43:58.151Z,101124.94
2022-10-19T16:46:27.015Z,101118.94
2022-10-19T16:48:55.134Z,101106.84
2022-10-19T16:51:40.168Z,101106.06
2022-10-19T16:54:10.736Z,101116.44
2022-10-19T16:56:45.595Z,101103.50
2022-10-19T16:59:15.730Z,101096.66
2022-10-19T17:01:45.503Z,101077.69
2022-10-19T17:04:13.975Z,101070.78
2022-10-19T17:06:52.066Z,101075.09
2022-10-19T17:09:40.891Z,101078.56
2022-10-19T17:12:10.036Z,101066.50
2022-10-19T17:14:40.160Z,101073.50
2022-10-19T17:17:08.637Z,101061.44
2022-10-19T17:19:37.479Z,101079.59
2022-10-19T17:22:06.956Z,101079.53
2022-10-19T17:24:39.349Z,101082.13
2022-10-19T17:27:07.540Z,101079.59
2022-10-19T17:29:35.545Z,101076.09
2022-10-19T17:32:03.651Z,101066.59
2022-10-19T17:34:35.862Z,101062.31
2022-10-19T17:37:04.128Z,101059.75
2022-10-19T17:39:33.769Z,101069.28
2022-10-19T17:42:13.434Z,101065.03
2022-10-19T17:44:43.450Z,101069.28
2022-10-19T17:47:11.436Z,101070.00
2022-10-19T17:49:39.736Z,101061.84
2022-10-19T17:52:07.862Z,101042.47
2022-10-19T17:54:48.627Z,101042.31
2022-10-19T17:57:26.467Z,101049.22
2022-10-19T17:59:55.483Z,101047.53
2022-10-19T18:02:29.269Z,101033.00
2022-10-19T18:05:00.829Z,101015.91
2022-10-19T18:07:32.389Z,101010.00
2022-10-19T18:10:04.519Z,101015.28
2022-10-19T18:12:32.597Z,101018.81
2022-10-19T18:15:03.176Z,101008.50
2022-10-19T18:17:37.143Z,101005.97
2022-10-19T18:20:09.532Z,101007.75
2022-10-19T18:22:37.932Z,101004.31
2022-10-19T18:25:08.531Z,100989.66
2022-10-19T18:27:36.935Z,101004.38
2022-10-19T18:30:05.585Z,100996.66
2022-10-19T18:32:33.999Z,101002.72
2022-10-19T18:35:02.978Z,100997.50
2022-10-19T18:37:31.111Z,100981.03
2022-10-19T18:39:59.219Z,100963.72
2022-10-19T18:42:29.167Z,100955.97
2022-10-19T18:44:57.486Z,100962.88
2022-10-19T18:47:25.729Z,100982.75
2022-10-19T18:49:57.000Z,100967.28
2022-10-19T18:52:25.193Z,100953.56
2022-10-19T18:54:53.439Z,100959.59
2022-10-19T18:57:21.758Z,100968.25
2022-10-19T18:59:51.381Z,100953.63
2022-10-19T19:02:34.761Z,100930.28
2022-10-19T19:05:10.024Z,100922.53
2022-10-19T19:07:38.764Z,100913.88
2022-10-19T19:10:08.389Z,100920.84
2022-10-19T19:12:36.698Z,100922.59
2022-10-19T19:15:08.703Z,100930.38
2022-10-19T19:17:36.967Z,100929.59
2022-10-19T19:20:05.836Z,100908.91
2022-10-19T19:22:34.160Z,100908.06
2022-10-19T19:25:04.034Z,100902.94
2022-10-19T19:27:32.272Z,100897.75
2022-10-19T19:30:05.013Z,100891.75
2022-10-19T19:32:36.366Z,100887.47
2022-10-19T19:35:04.924Z,100883.16
2022-10-19T19:37:36.914Z,100877.16
2022-10-19T19:40:05.608Z,100886.66
2022-10-19T19:42:35.283Z,100890.16
2022-10-19T19:45:03.352Z,100881.50
2022-10-19T19:47:32.032Z,100869.44
2022-10-19T19:50:02.084Z,100861.69
2022-10-19T19:52:30.509Z,100851.38
2022-10-19T19:57:28.822Z,100861.75
2022-10-19T19:59:57.884Z,100882.50
2022-10-19T20:02:26.311Z,100861.78
2022-10-19T20:04:54.567Z,100859.22
2022-10-19T20:07:27.500Z,100858.38
2022-10-19T20:09:56.242Z,100848.00
2022-10-19T20:12:24.873Z,100843.72
2022-10-19T20:14:54.119Z,100840.28
2022-10-19T20:17:31.012Z,100834.22
2022-10-19T20:19:59.558Z,100839.44
2022-10-19T20:22:42.542Z,100843.72
2022-10-19T20:25:11.280Z,100845.47
2022-10-19T20:27:39.830Z,100835.13
2022-10-19T20:30:16.916Z,100817.88
2022-10-19T20:32:45.096Z,100817.03
2022-10-19T20:35:14.670Z,100815.31
2022-10-19T20:37:44.403Z,100813.59
2022-10-19T20:40:16.215Z,100837.78
2022-10-19T20:42:44.795Z,100829.16
2022-10-19T20:45:14.109Z,100839.53
2022-10-19T20:47:42.401Z,100851.63
2022-10-19T20:50:11.739Z,100871.50
2022-10-19T20:52:40.015Z,100894.81
2022-10-19T20:55:10.687Z,100888.78
2022-10-19T20:57:38.878Z,100901.72
2022-10-19T21:00:08.197Z,100903.41
2022-10-19T21:02:39.115Z,100892.75
2022-10-19T21:05:15.136Z,100881.19
2022-10-19T21:07:43.281Z,100882.75
2022-10-19T21:10:12.742Z,100894.72
2022-10-19T21:12:43.181Z,100892.06
2022-10-19T21:15:11.904Z,100879.94
2022-10-19T21:17:42.582Z,100878.22
2022-10-19T21:20:11.287Z,100875.63
2022-10-19T21:22:41.518Z,100846.31
2022-10-19T21:25:17.036Z,100806.66
2022-10-19T21:27:47.467Z,100787.69
2022-10-19T21:30:15.594Z,100796.31
2022-10-19T21:32:43.684Z,100696.28
2022-10-19T21:35:11.716Z,100690.22
2022-10-19T21:37:39.967Z,100777.31
2022-10-19T21:40:11.387Z,100798.03
2022-10-19T21:42:45.152Z,100758.41
2022-10-19T21:45:29.253Z,100739.47
2022-10-19T21:48:07.514Z,100742.91
2022-10-19T21:50:41.942Z,100744.63
2022-10-19T21:53:23.089Z,100743.75
2022-10-19T21:55:51.595Z,100730.00
2022-10-19T21:58:23.250Z,100726.53
2022-10-19T22:00:51.381Z,100727.44
2022-10-19T22:03:19.628Z,100725.69
2022-10-19T22:05:52.305Z,100717.09
2022-10-19T22:08:20.342Z,100713.66
2022-10-19T22:10:48.635Z,100721.47
2022-10-19T22:13:23.057Z,100730.97
2022-10-19T22:15:54.605Z,100740.47
2022-10-19T22:18:22.607Z,100748.22
2022-10-19T22:20:50.740Z,100749.97
2022-10-19T22:23:20.859Z,100757.75
2022-10-19T22:26:17.306Z,100769.88
2022-10-19T22:28:48.648Z,100788.00
2022-10-19T22:31:20.820Z,100787.13
2022-10-19T22:33:49.094Z,100791.47
2022-10-19T22:36:17.356Z,100788.88
2022-10-19T22:38:45.546Z,100788.88
2022-10-19T22:42:08.264Z,100778.47
2022-10-19T22:44:39.243Z,100782.75
2022-10-19T22:47:08.848Z,100789.66
2022-10-19T22:49:42.347Z,100787.97
2022-10-19T22:52:11.461Z,100782.81
2022-10-19T22:54:40.736Z,100791.47
2022-10-19T22:57:17.164Z,100773.31
2022-10-19T22:59:45.391Z,100771.63
2022-10-19T23:02:14.996Z,100773.31
2022-10-19T23:04:45.992Z,100772.47
2022-10-19T23:07:14.060Z,100771.63
2022-10-19T23:09:44.861Z,100770.78
2022-10-19T23:12:12.964Z,100762.16
2022-10-19T23:14:40.995Z,100762.16
2022-10-19T23:17:09.059Z,100769.03
2022-10-19T23:19:38.614Z,100762.13
2022-10-19T23:22:06.662Z,100755.19
2022-10-19T23:24:36.702Z,100762.09
2022-10-19T23:27:04.982Z,100761.25
2022-10-19T23:29:33.257Z,100751.75
2022-10-19T23:32:03.674Z,100746.59
2022-10-19T23:37:12.630Z,100746.63
2022-10-19T23:39:40.677Z,100749.22
2022-10-19T23:42:11.020Z,100743.19
2022-10-19T23:44:41.035Z,100733.69
2022-10-19T23:47:09.019Z,100749.22
2022-10-19T23:49:37.030Z,100729.41
2022-10-19T23:52:05.302Z,100732.03
2022-10-19T23:54:34.754Z,100721.69
2022-10-19T23:57:02.898Z,100720.00
2022-10-19T23:59:33.955Z,100713.94
